Aeroporto :
LOGIN :

Iscrizione | Disclaimer

   EN    FR    IT 

 










Sommario :    VFR   VFR Marginale   IFR   IFR Intensivo   IFR Molto Intensivo
Visibilità : 
Base nubi : 
>= 8 km
>= 3000ft
5 / 8 km
1000 / 3000 ft
1500m / 5 km
500 / 1000 ft
800 / 1500m
200 / 500 ft
< 800m
< 200 ft
Simboli :   Temporali  Nebbia  Neve Forte  Precipitazioni Forti  Vento > 20 kt
SIGMETs :   Varie  Temporali  Ghiacco  Turbolenza  Onda orograficha  Ceneri Vulcaniche






- Altitudine del aeroporto : 13 ft
- Codice IATA : GOA


LIMJ - Genoa Cristoforo Colombo

ULTIMO METAR :
  • 231250Z 04010KT 020V080 9999 FEW060 22/15 Q1016

METARs OBSOLETI :
  • 231220Z 05008KT 9999 SCT050 22/15 Q1017
  • 231150Z 05011KT 020V080 9999 FEW050 22/15 Q1017
  • 231120Z 05011KT 020V080 CAVOK 23/15 Q1018
  • 231050Z 05010KT 020V080 CAVOK 23/15 Q1018
  • 231020Z 04006KT 350V100 CAVOK 23/15 Q1019

TAF TAF LIMJ
Valido dal 23 a 12 ore il 24 a 12 ore UTC


231100Z 2312/2412 04008KT 9999 SCT030 SCT080
BECMG 2322/2324 13012KT RA BKN012 BKN040
TEMPO 2400/2412 4000 TSRA



MetMap, La meteo Aeronautica in un colpo d'occhio ! - Copyright ORBIFLY Dicembre 2007 - Disclaimer

ORBIFLY MET'MAP TEAM :

Programmazione e sviluppo : Alexandra Zaïnal
Concezione e sviluppo : Baudouin d'Aumeries
Co-Programmazione e sviluppo : Marc-Olivier Méhu
Supporto tecnico e logistico : Manuel Goepfert
Aiuto per la traduzione : Arnaldo La Scala

Contatto : metmap@orbifly.com




FONTI E CREDITI :

   NOAA